sensor_id;sensor_type;location;lat;lon;timestamp;P1;durP1;ratioP1;P2;durP2;ratioP2
6077;SDS011;3067;49.470;10.394;2023-03-01T00:00:20;17.57;;;9.80;;
6077;SDS011;3067;49.470;10.394;2023-03-01T00:02:47;24.33;;;9.20;;
6077;SDS011;3067;49.470;10.394;2023-03-01T00:05:15;20.20;;;10.23;;
6077;SDS011;3067;49.470;10.394;2023-03-01T00:07:43;17.40;;;8.60;;
6077;SDS011;3067;49.470;10.394;2023-03-01T00:10:11;22.47;;;8.93;;
6077;SDS011;3067;49.470;10.394;2023-03-01T00:12:38;14.30;;;7.87;;
6077;SDS011;3067;49.470;10.394;2023-03-01T00:15:06;18.27;;;8.97;;
6077;SDS011;3067;49.470;10.394;2023-03-01T00:17:33;15.90;;;8.87;;
6077;SDS011;3067;49.470;10.394;2023-03-01T00:20:01;20.93;;;9.00;;
6077;SDS011;3067;49.470;10.394;2023-03-01T00:22:28;14.90;;;8.27;;
6077;SDS011;3067;49.470;10.394;2023-03-01T00:24:57;18.10;;;9.80;;
6077;SDS011;3067;49.470;10.394;2023-03-01T00:27:24;19.47;;;9.63;;
6077;SDS011;3067;49.470;10.394;2023-03-01T00:29:51;21.90;;;10.10;;
6077;SDS011;3067;49.470;10.394;2023-03-01T00:32:19;22.03;;;9.07;;
6077;SDS011;3067;49.470;10.394;2023-03-01T00:34:46;15.20;;;8.67;;
6077;SDS011;3067;49.470;10.394;2023-03-01T00:37:19;16.43;;;8.93;;
6077;SDS011;3067;49.470;10.394;2023-03-01T00:39:46;16.27;;;8.57;;
6077;SDS011;3067;49.470;10.394;2023-03-01T00:42:15;20.20;;;9.13;;
6077;SDS011;3067;49.470;10.394;2023-03-01T00:44:43;19.23;;;8.63;;
6077;SDS011;3067;49.470;10.394;2023-03-01T00:47:10;19.53;;;8.73;;
6077;SDS011;3067;49.470;10.394;2023-03-01T00:49:38;17.90;;;9.67;;
6077;SDS011;3067;49.470;10.394;2023-03-01T00:52:06;16.30;;;9.30;;
6077;SDS011;3067;49.470;10.394;2023-03-01T00:54:33;19.23;;;9.97;;
6077;SDS011;3067;49.470;10.394;2023-03-01T00:57:00;20.80;;;9.17;;
6077;SDS011;3067;49.470;10.394;2023-03-01T00:59:29;16.53;;;8.53;;
6077;SDS011;3067;49.470;10.394;2023-03-01T01:01:56;18.67;;;8.73;;
6077;SDS011;3067;49.470;10.394;2023-03-01T01:04:24;18.90;;;8.90;;
6077;SDS011;3067;49.470;10.394;2023-03-01T01:06:51;21.60;;;9.10;;
6077;SDS011;3067;49.470;10.394;2023-03-01T01:09:18;22.17;;;10.43;;
6077;SDS011;3067;49.470;10.394;2023-03-01T01:11:46;21.60;;;9.37;;
6077;SDS011;3067;49.470;10.394;2023-03-01T01:14:14;19.70;;;9.17;;
6077;SDS011;3067;49.470;10.394;2023-03-01T01:16:43;19.20;;;8.60;;
6077;SDS011;3067;49.470;10.394;2023-03-01T01:19:11;14.10;;;7.80;;
6077;SDS011;3067;49.470;10.394;2023-03-01T01:21:38;18.07;;;10.20;;
6077;SDS011;3067;49.470;10.394;2023-03-01T01:24:08;19.40;;;9.77;;
6077;SDS011;3067;49.470;10.394;2023-03-01T01:26:36;23.43;;;9.97;;
6077;SDS011;3067;49.470;10.394;2023-03-01T01:29:03;19.47;;;9.80;;
6077;SDS011;3067;49.470;10.394;2023-03-01T01:31:32;18.70;;;9.33;;
6077;SDS011;3067;49.470;10.394;2023-03-01T01:34:01;20.37;;;9.80;;
6077;SDS011;3067;49.470;10.394;2023-03-01T01:36:29;18.03;;;9.33;;
6077;SDS011;3067;49.470;10.394;2023-03-01T01:38:56;19.93;;;9.17;;
6077;SDS011;3067;49.470;10.394;2023-03-01T01:41:24;22.03;;;9.83;;
6077;SDS011;3067;49.470;10.394;2023-03-01T01:46:35;17.67;;;9.63;;
6077;SDS011;3067;49.470;10.394;2023-03-01T01:49:05;18.87;;;9.43;;
6077;SDS011;3067;49.470;10.394;2023-03-01T01:51:35;16.60;;;9.70;;
6077;SDS011;3067;49.470;10.394;2023-03-01T01:54:05;19.70;;;9.87;;
6077;SDS011;3067;49.470;10.394;2023-03-01T01:56:35;21.70;;;9.87;;
6077;SDS011;3067;49.470;10.394;2023-03-01T01:59:04;21.93;;;10.10;;
6077;SDS011;3067;49.470;10.394;2023-03-01T02:01:32;17.17;;;9.37;;
6077;SDS011;3067;49.470;10.394;2023-03-01T02:03:59;17.23;;;9.00;;
6077;SDS011;3067;49.470;10.394;2023-03-01T02:06:28;23.30;;;9.70;;
6077;SDS011;3067;49.470;10.394;2023-03-01T02:08:57;24.43;;;9.83;;
6077;SDS011;3067;49.470;10.394;2023-03-01T02:11:25;19.37;;;9.20;;
6077;SDS011;3067;49.470;10.394;2023-03-01T02:13:52;25.23;;;10.03;;
6077;SDS011;3067;49.470;10.394;2023-03-01T02:16:21;19.63;;;10.57;;
6077;SDS011;3067;49.470;10.394;2023-03-01T02:18:48;22.53;;;10.50;;
6077;SDS011;3067;49.470;10.394;2023-03-01T02:21:27;18.70;;;9.73;;
6077;SDS011;3067;49.470;10.394;2023-03-01T02:23:57;19.43;;;8.90;;
6077;SDS011;3067;49.470;10.394;2023-03-01T02:26:27;19.77;;;9.63;;
6077;SDS011;3067;49.470;10.394;2023-03-01T02:28:57;20.70;;;10.70;;
6077;SDS011;3067;49.470;10.394;2023-03-01T02:31:25;18.93;;;9.37;;
6077;SDS011;3067;49.470;10.394;2023-03-01T02:34:09;17.33;;;9.07;;
6077;SDS011;3067;49.470;10.394;2023-03-01T02:36:38;21.73;;;9.63;;
6077;SDS011;3067;49.470;10.394;2023-03-01T02:39:07;19.60;;;9.80;;
6077;SDS011;3067;49.470;10.394;2023-03-01T02:41:39;19.30;;;10.10;;
6077;SDS011;3067;49.470;10.394;2023-03-01T02:44:09;16.90;;;9.53;;
6077;SDS011;3067;49.470;10.394;2023-03-01T02:46:41;16.50;;;8.80;;
6077;SDS011;3067;49.470;10.394;2023-03-01T02:49:19;20.57;;;9.67;;
6077;SDS011;3067;49.470;10.394;2023-03-01T02:51:50;20.67;;;10.20;;
6077;SDS011;3067;49.470;10.394;2023-03-01T02:54:21;21.20;;;9.00;;
6077;SDS011;3067;49.470;10.394;2023-03-01T02:56:50;17.33;;;8.80;;
6077;SDS011;3067;49.470;10.394;2023-03-01T02:59:19;21.67;;;8.80;;
6077;SDS011;3067;49.470;10.394;2023-03-01T03:01:47;22.13;;;10.57;;
6077;SDS011;3067;49.470;10.394;2023-03-01T03:04:15;22.37;;;10.50;;
6077;SDS011;3067;49.470;10.394;2023-03-01T03:06:43;23.20;;;8.47;;
6077;SDS011;3067;49.470;10.394;2023-03-01T03:09:10;18.97;;;9.50;;
6077;SDS011;3067;49.470;10.394;2023-03-01T03:11:38;20.53;;;9.67;;
6077;SDS011;3067;49.470;10.394;2023-03-01T03:14:06;17.67;;;9.70;;
6077;SDS011;3067;49.470;10.394;2023-03-01T03:16:39;19.17;;;9.33;;
6077;SDS011;3067;49.470;10.394;2023-03-01T03:19:06;17.67;;;8.93;;
6077;SDS011;3067;49.470;10.394;2023-03-01T03:21:34;21.53;;;9.43;;
6077;SDS011;3067;49.470;10.394;2023-03-01T03:24:01;17.87;;;8.80;;
6077;SDS011;3067;49.470;10.394;2023-03-01T03:26:29;17.47;;;9.60;;
6077;SDS011;3067;49.470;10.394;2023-03-01T03:28:56;20.37;;;10.03;;
6077;SDS011;3067;49.470;10.394;2023-03-01T03:31:23;19.00;;;9.23;;
6077;SDS011;3067;49.470;10.394;2023-03-01T03:33:54;19.60;;;9.27;;
6077;SDS011;3067;49.470;10.394;2023-03-01T03:36:28;20.63;;;9.77;;
6077;SDS011;3067;49.470;10.394;2023-03-01T03:38:56;18.47;;;9.07;;
6077;SDS011;3067;49.470;10.394;2023-03-01T03:41:24;17.93;;;8.83;;
6077;SDS011;3067;49.470;10.394;2023-03-01T03:43:52;16.53;;;8.33;;
6077;SDS011;3067;49.470;10.394;2023-03-01T03:46:19;20.20;;;9.47;;
6077;SDS011;3067;49.470;10.394;2023-03-01T03:48:46;25.50;;;10.43;;
6077;SDS011;3067;49.470;10.394;2023-03-01T03:51:16;18.97;;;8.57;;
6077;SDS011;3067;49.470;10.394;2023-03-01T03:53:44;14.53;;;7.67;;
6077;SDS011;3067;49.470;10.394;2023-03-01T03:56:12;23.40;;;9.90;;
6077;SDS011;3067;49.470;10.394;2023-03-01T03:58:40;22.40;;;9.30;;
6077;SDS011;3067;49.470;10.394;2023-03-01T04:01:07;19.30;;;9.50;;
6077;SDS011;3067;49.470;10.394;2023-03-01T04:03:35;20.80;;;9.23;;
6077;SDS011;3067;49.470;10.394;2023-03-01T04:06:03;21.30;;;9.77;;
6077;SDS011;3067;49.470;10.394;2023-03-01T04:08:32;21.27;;;10.17;;
6077;SDS011;3067;49.470;10.394;2023-03-01T04:11:00;16.80;;;9.60;;
6077;SDS011;3067;49.470;10.394;2023-03-01T04:13:49;18.23;;;9.43;;
6077;SDS011;3067;49.470;10.394;2023-03-01T04:16:17;18.07;;;9.27;;
6077;SDS011;3067;49.470;10.394;2023-03-01T04:18:44;21.37;;;10.17;;
6077;SDS011;3067;49.470;10.394;2023-03-01T04:21:12;14.67;;;7.73;;
6077;SDS011;3067;49.470;10.394;2023-03-01T04:23:40;22.33;;;9.23;;
6077;SDS011;3067;49.470;10.394;2023-03-01T04:26:08;18.30;;;8.57;;
6077;SDS011;3067;49.470;10.394;2023-03-01T04:28:36;17.80;;;9.90;;
6077;SDS011;3067;49.470;10.394;2023-03-01T04:31:05;29.20;;;11.47;;
6077;SDS011;3067;49.470;10.394;2023-03-01T04:33:38;20.73;;;9.73;;
6077;SDS011;3067;49.470;10.394;2023-03-01T04:36:07;20.20;;;9.63;;
6077;SDS011;3067;49.470;10.394;2023-03-01T04:38:35;19.90;;;9.50;;
6077;SDS011;3067;49.470;10.394;2023-03-01T04:41:05;21.60;;;8.80;;
6077;SDS011;3067;49.470;10.394;2023-03-01T04:43:32;21.57;;;9.50;;
6077;SDS011;3067;49.470;10.394;2023-03-01T04:46:00;19.27;;;9.37;;
6077;SDS011;3067;49.470;10.394;2023-03-01T04:48:29;22.83;;;10.13;;
6077;SDS011;3067;49.470;10.394;2023-03-01T04:50:56;29.17;;;9.70;;
6077;SDS011;3067;49.470;10.394;2023-03-01T04:53:24;26.03;;;9.70;;
6077;SDS011;3067;49.470;10.394;2023-03-01T04:55:51;18.20;;;8.87;;
6077;SDS011;3067;49.470;10.394;2023-03-01T04:58:20;18.80;;;9.37;;
6077;SDS011;3067;49.470;10.394;2023-03-01T05:00:47;13.90;;;7.93;;
6077;SDS011;3067;49.470;10.394;2023-03-01T05:03:15;19.30;;;8.93;;
6077;SDS011;3067;49.470;10.394;2023-03-01T05:05:51;22.77;;;10.70;;
6077;SDS011;3067;49.470;10.394;2023-03-01T05:08:18;21.70;;;8.30;;
6077;SDS011;3067;49.470;10.394;2023-03-01T05:10:47;18.33;;;9.07;;
6077;SDS011;3067;49.470;10.394;2023-03-01T05:13:15;17.10;;;8.80;;
6077;SDS011;3067;49.470;10.394;2023-03-01T05:15:48;17.53;;;9.20;;
6077;SDS011;3067;49.470;10.394;2023-03-01T05:18:15;28.33;;;11.07;;
6077;SDS011;3067;49.470;10.394;2023-03-01T05:20:42;22.53;;;10.07;;
6077;SDS011;3067;49.470;10.394;2023-03-01T05:23:11;17.60;;;8.63;;
6077;SDS011;3067;49.470;10.394;2023-03-01T05:25:41;19.30;;;9.73;;
6077;SDS011;3067;49.470;10.394;2023-03-01T05:28:09;20.37;;;8.90;;
6077;SDS011;3067;49.470;10.394;2023-03-01T05:30:37;25.67;;;9.30;;
6077;SDS011;3067;49.470;10.394;2023-03-01T05:33:06;20.07;;;8.97;;
6077;SDS011;3067;49.470;10.394;2023-03-01T05:35:38;18.50;;;8.77;;
6077;SDS011;3067;49.470;10.394;2023-03-01T05:38:06;22.80;;;10.97;;
6077;SDS011;3067;49.470;10.394;2023-03-01T05:40:34;24.57;;;12.00;;
6077;SDS011;3067;49.470;10.394;2023-03-01T05:43:01;29.20;;;12.60;;
6077;SDS011;3067;49.470;10.394;2023-03-01T05:45:30;26.87;;;12.20;;
6077;SDS011;3067;49.470;10.394;2023-03-01T05:47:59;23.90;;;11.67;;
6077;SDS011;3067;49.470;10.394;2023-03-01T05:50:29;21.17;;;10.17;;
6077;SDS011;3067;49.470;10.394;2023-03-01T05:52:57;22.73;;;10.10;;
6077;SDS011;3067;49.470;10.394;2023-03-01T05:55:28;23.90;;;10.17;;
6077;SDS011;3067;49.470;10.394;2023-03-01T05:57:57;18.43;;;9.97;;
6077;SDS011;3067;49.470;10.394;2023-03-01T06:00:26;23.43;;;10.13;;
6077;SDS011;3067;49.470;10.394;2023-03-01T06:02:57;19.73;;;9.90;;
6077;SDS011;3067;49.470;10.394;2023-03-01T06:05:25;21.23;;;9.87;;
6077;SDS011;3067;49.470;10.394;2023-03-01T06:07:54;18.40;;;9.10;;
6077;SDS011;3067;49.470;10.394;2023-03-01T06:10:22;18.77;;;9.37;;
6077;SDS011;3067;49.470;10.394;2023-03-01T06:12:49;17.17;;;8.83;;
6077;SDS011;3067;49.470;10.394;2023-03-01T06:15:17;22.17;;;9.83;;
6077;SDS011;3067;49.470;10.394;2023-03-01T06:17:45;21.97;;;10.60;;
6077;SDS011;3067;49.470;10.394;2023-03-01T06:20:13;18.43;;;9.43;;
6077;SDS011;3067;49.470;10.394;2023-03-01T06:22:41;26.50;;;9.77;;
6077;SDS011;3067;49.470;10.394;2023-03-01T06:25:13;24.37;;;9.47;;
6077;SDS011;3067;49.470;10.394;2023-03-01T06:27:41;19.90;;;11.03;;
6077;SDS011;3067;49.470;10.394;2023-03-01T06:30:12;43.47;;;9.37;;
6077;SDS011;3067;49.470;10.394;2023-03-01T06:32:40;24.80;;;10.47;;
6077;SDS011;3067;49.470;10.394;2023-03-01T06:35:13;30.63;;;10.50;;
6077;SDS011;3067;49.470;10.394;2023-03-01T06:37:43;25.63;;;10.53;;
6077;SDS011;3067;49.470;10.394;2023-03-01T06:40:11;22.27;;;9.93;;
6077;SDS011;3067;49.470;10.394;2023-03-01T06:42:41;36.13;;;11.03;;
6077;SDS011;3067;49.470;10.394;2023-03-01T06:45:09;25.77;;;11.07;;
6077;SDS011;3067;49.470;10.394;2023-03-01T06:47:39;26.30;;;10.80;;
6077;SDS011;3067;49.470;10.394;2023-03-01T06:50:06;27.40;;;11.97;;
6077;SDS011;3067;49.470;10.394;2023-03-01T06:52:34;20.83;;;9.87;;
6077;SDS011;3067;49.470;10.394;2023-03-01T06:55:02;26.13;;;9.23;;
6077;SDS011;3067;49.470;10.394;2023-03-01T06:57:30;22.20;;;10.27;;
6077;SDS011;3067;49.470;10.394;2023-03-01T07:00:02;27.70;;;11.63;;
6077;SDS011;3067;49.470;10.394;2023-03-01T07:02:44;19.57;;;9.30;;
6077;SDS011;3067;49.470;10.394;2023-03-01T07:05:11;19.77;;;9.90;;
6077;SDS011;3067;49.470;10.394;2023-03-01T07:07:38;21.73;;;10.60;;
6077;SDS011;3067;49.470;10.394;2023-03-01T07:10:06;26.87;;;12.07;;
6077;SDS011;3067;49.470;10.394;2023-03-01T07:12:34;20.63;;;11.20;;
6077;SDS011;3067;49.470;10.394;2023-03-01T07:15:03;21.80;;;10.83;;
6077;SDS011;3067;49.470;10.394;2023-03-01T07:17:30;30.00;;;11.40;;
6077;SDS011;3067;49.470;10.394;2023-03-01T07:19:57;26.13;;;11.33;;
6077;SDS011;3067;49.470;10.394;2023-03-01T07:22:25;22.33;;;11.07;;
6077;SDS011;3067;49.470;10.394;2023-03-01T07:24:52;26.90;;;12.30;;
6077;SDS011;3067;49.470;10.394;2023-03-01T07:27:21;25.77;;;12.60;;
6077;SDS011;3067;49.470;10.394;2023-03-01T07:29:49;28.00;;;13.17;;
6077;SDS011;3067;49.470;10.394;2023-03-01T07:32:18;27.50;;;12.63;;
6077;SDS011;3067;49.470;10.394;2023-03-01T07:34:45;31.17;;;12.30;;
6077;SDS011;3067;49.470;10.394;2023-03-01T07:37:12;24.90;;;11.40;;
6077;SDS011;3067;49.470;10.394;2023-03-01T07:39:40;36.37;;;11.37;;
6077;SDS011;3067;49.470;10.394;2023-03-01T07:42:08;28.43;;;11.97;;
6077;SDS011;3067;49.470;10.394;2023-03-01T07:44:36;24.43;;;11.63;;
6077;SDS011;3067;49.470;10.394;2023-03-01T07:47:06;31.13;;;11.67;;
6077;SDS011;3067;49.470;10.394;2023-03-01T07:52:17;28.70;;;11.80;;
6077;SDS011;3067;49.470;10.394;2023-03-01T07:54:45;20.23;;;10.03;;
6077;SDS011;3067;49.470;10.394;2023-03-01T07:57:12;23.77;;;11.43;;
6077;SDS011;3067;49.470;10.394;2023-03-01T07:59:39;29.00;;;11.27;;
6077;SDS011;3067;49.470;10.394;2023-03-01T08:02:07;27.20;;;11.03;;
6077;SDS011;3067;49.470;10.394;2023-03-01T08:04:35;19.27;;;10.10;;
6077;SDS011;3067;49.470;10.394;2023-03-01T08:07:04;24.10;;;10.47;;
6077;SDS011;3067;49.470;10.394;2023-03-01T08:09:33;25.83;;;11.70;;
6077;SDS011;3067;49.470;10.394;2023-03-01T08:12:01;28.47;;;11.97;;
6077;SDS011;3067;49.470;10.394;2023-03-01T08:14:29;26.33;;;11.50;;
6077;SDS011;3067;49.470;10.394;2023-03-01T08:16:56;25.93;;;11.23;;
6077;SDS011;3067;49.470;10.394;2023-03-01T08:19:24;23.90;;;10.03;;
6077;SDS011;3067;49.470;10.394;2023-03-01T08:21:53;27.53;;;10.93;;
6077;SDS011;3067;49.470;10.394;2023-03-01T08:24:23;20.20;;;10.40;;
6077;SDS011;3067;49.470;10.394;2023-03-01T08:26:52;24.23;;;11.50;;
6077;SDS011;3067;49.470;10.394;2023-03-01T08:29:20;28.00;;;11.93;;
6077;SDS011;3067;49.470;10.394;2023-03-01T08:31:50;25.00;;;10.60;;
6077;SDS011;3067;49.470;10.394;2023-03-01T08:34:17;23.30;;;11.00;;
6077;SDS011;3067;49.470;10.394;2023-03-01T08:36:45;25.77;;;10.87;;
6077;SDS011;3067;49.470;10.394;2023-03-01T08:39:13;27.80;;;11.70;;
6077;SDS011;3067;49.470;10.394;2023-03-01T08:41:41;24.33;;;11.23;;
6077;SDS011;3067;49.470;10.394;2023-03-01T08:44:10;25.73;;;10.60;;
6077;SDS011;3067;49.470;10.394;2023-03-01T08:46:38;26.80;;;12.53;;
6077;SDS011;3067;49.470;10.394;2023-03-01T08:49:06;25.20;;;11.70;;
6077;SDS011;3067;49.470;10.394;2023-03-01T08:51:34;28.80;;;11.97;;
6077;SDS011;3067;49.470;10.394;2023-03-01T08:54:02;27.70;;;11.30;;
6077;SDS011;3067;49.470;10.394;2023-03-01T08:56:30;22.77;;;11.37;;
6077;SDS011;3067;49.470;10.394;2023-03-01T08:58:57;26.63;;;11.73;;
6077;SDS011;3067;49.470;10.394;2023-03-01T09:01:26;24.60;;;11.87;;
6077;SDS011;3067;49.470;10.394;2023-03-01T09:03:53;24.63;;;11.87;;
6077;SDS011;3067;49.470;10.394;2023-03-01T09:06:20;25.00;;;12.13;;
6077;SDS011;3067;49.470;10.394;2023-03-01T09:08:48;27.20;;;12.20;;
6077;SDS011;3067;49.470;10.394;2023-03-01T09:11:18;33.57;;;12.90;;
6077;SDS011;3067;49.470;10.394;2023-03-01T09:13:46;26.13;;;12.80;;
6077;SDS011;3067;49.470;10.394;2023-03-01T09:16:15;31.07;;;12.60;;
6077;SDS011;3067;49.470;10.394;2023-03-01T09:18:44;24.93;;;11.50;;
6077;SDS011;3067;49.470;10.394;2023-03-01T09:21:13;26.43;;;12.40;;
6077;SDS011;3067;49.470;10.394;2023-03-01T09:23:41;24.87;;;12.03;;
6077;SDS011;3067;49.470;10.394;2023-03-01T09:26:09;29.73;;;13.30;;
6077;SDS011;3067;49.470;10.394;2023-03-01T09:28:37;26.73;;;13.17;;
6077;SDS011;3067;49.470;10.394;2023-03-01T09:31:05;24.60;;;12.90;;
6077;SDS011;3067;49.470;10.394;2023-03-01T09:33:33;30.27;;;12.90;;
6077;SDS011;3067;49.470;10.394;2023-03-01T09:36:03;28.57;;;13.53;;
6077;SDS011;3067;49.470;10.394;2023-03-01T09:38:31;30.00;;;13.17;;
6077;SDS011;3067;49.470;10.394;2023-03-01T09:40:58;30.50;;;13.57;;
6077;SDS011;3067;49.470;10.394;2023-03-01T09:43:26;26.90;;;12.77;;
6077;SDS011;3067;49.470;10.394;2023-03-01T09:45:58;28.20;;;12.97;;
6077;SDS011;3067;49.470;10.394;2023-03-01T09:48:26;26.30;;;13.83;;
6077;SDS011;3067;49.470;10.394;2023-03-01T09:50:54;32.67;;;13.93;;
6077;SDS011;3067;49.470;10.394;2023-03-01T09:53:23;27.70;;;13.50;;
6077;SDS011;3067;49.470;10.394;2023-03-01T09:55:53;29.47;;;13.60;;
6077;SDS011;3067;49.470;10.394;2023-03-01T09:58:28;25.00;;;12.80;;
6077;SDS011;3067;49.470;10.394;2023-03-01T10:00:58;28.53;;;14.03;;
6077;SDS011;3067;49.470;10.394;2023-03-01T10:03:28;32.60;;;13.50;;
6077;SDS011;3067;49.470;10.394;2023-03-01T10:05:59;27.70;;;13.97;;
6077;SDS011;3067;49.470;10.394;2023-03-01T10:08:31;29.27;;;14.20;;
6077;SDS011;3067;49.470;10.394;2023-03-01T10:11:01;26.57;;;12.03;;
6077;SDS011;3067;49.470;10.394;2023-03-01T10:13:31;29.27;;;13.17;;
6077;SDS011;3067;49.470;10.394;2023-03-01T10:16:01;26.43;;;12.87;;
6077;SDS011;3067;49.470;10.394;2023-03-01T10:18:30;27.67;;;12.87;;
6077;SDS011;3067;49.470;10.394;2023-03-01T10:21:02;23.77;;;12.30;;
6077;SDS011;3067;49.470;10.394;2023-03-01T10:23:31;25.03;;;13.20;;
6077;SDS011;3067;49.470;10.394;2023-03-01T10:28:44;40.57;;;13.23;;
6077;SDS011;3067;49.470;10.394;2023-03-01T10:31:14;23.40;;;12.10;;
6077;SDS011;3067;49.470;10.394;2023-03-01T10:33:42;28.70;;;13.60;;
6077;SDS011;3067;49.470;10.394;2023-03-01T10:36:09;32.80;;;14.27;;
6077;SDS011;3067;49.470;10.394;2023-03-01T10:38:51;26.33;;;13.80;;
6077;SDS011;3067;49.470;10.394;2023-03-01T10:41:19;27.23;;;14.13;;
6077;SDS011;3067;49.470;10.394;2023-03-01T10:43:49;26.10;;;12.50;;
6077;SDS011;3067;49.470;10.394;2023-03-01T10:46:23;30.67;;;13.30;;
6077;SDS011;3067;49.470;10.394;2023-03-01T10:49:04;25.73;;;12.47;;
6077;SDS011;3067;49.470;10.394;2023-03-01T10:51:32;24.30;;;12.00;;
6077;SDS011;3067;49.470;10.394;2023-03-01T10:54:01;28.40;;;13.47;;
6077;SDS011;3067;49.470;10.394;2023-03-01T10:56:29;27.60;;;13.43;;
6077;SDS011;3067;49.470;10.394;2023-03-01T10:59:19;25.47;;;13.47;;
6077;SDS011;3067;49.470;10.394;2023-03-01T11:01:46;27.90;;;13.37;;
6077;SDS011;3067;49.470;10.394;2023-03-01T11:04:27;30.80;;;13.80;;
6077;SDS011;3067;49.470;10.394;2023-03-01T11:06:57;29.93;;;14.30;;
6077;SDS011;3067;49.470;10.394;2023-03-01T11:09:29;29.47;;;13.63;;
6077;SDS011;3067;49.470;10.394;2023-03-01T11:12:02;24.40;;;12.50;;
6077;SDS011;3067;49.470;10.394;2023-03-01T11:14:31;25.53;;;12.53;;
6077;SDS011;3067;49.470;10.394;2023-03-01T11:17:01;26.97;;;12.93;;
6077;SDS011;3067;49.470;10.394;2023-03-01T11:19:29;28.97;;;13.30;;
6077;SDS011;3067;49.470;10.394;2023-03-01T11:21:58;31.10;;;13.50;;
6077;SDS011;3067;49.470;10.394;2023-03-01T11:24:30;28.90;;;12.43;;
6077;SDS011;3067;49.470;10.394;2023-03-01T11:26:59;24.60;;;13.13;;
6077;SDS011;3067;49.470;10.394;2023-03-01T11:29:27;24.93;;;12.70;;
6077;SDS011;3067;49.470;10.394;2023-03-01T11:31:59;24.53;;;12.97;;
6077;SDS011;3067;49.470;10.394;2023-03-01T11:34:32;22.90;;;12.80;;
6077;SDS011;3067;49.470;10.394;2023-03-01T11:37:02;23.60;;;13.10;;
6077;SDS011;3067;49.470;10.394;2023-03-01T11:39:34;26.30;;;13.10;;
6077;SDS011;3067;49.470;10.394;2023-03-01T11:42:05;24.93;;;13.23;;
6077;SDS011;3067;49.470;10.394;2023-03-01T11:44:34;21.43;;;12.53;;
6077;SDS011;3067;49.470;10.394;2023-03-01T11:47:11;23.03;;;12.30;;
6077;SDS011;3067;49.470;10.394;2023-03-01T11:49:47;26.17;;;14.10;;
6077;SDS011;3067;49.470;10.394;2023-03-01T11:52:20;26.60;;;14.80;;
6077;SDS011;3067;49.470;10.394;2023-03-01T11:54:54;25.97;;;13.70;;
6077;SDS011;3067;49.470;10.394;2023-03-01T11:57:31;25.90;;;14.07;;
6077;SDS011;3067;49.470;10.394;2023-03-01T12:00:12;27.97;;;14.67;;
6077;SDS011;3067;49.470;10.394;2023-03-01T12:03:04;34.37;;;14.33;;
6077;SDS011;3067;49.470;10.394;2023-03-01T12:08:33;23.83;;;12.90;;
6077;SDS011;3067;49.470;10.394;2023-03-01T12:11:06;25.93;;;14.10;;
6077;SDS011;3067;49.470;10.394;2023-03-01T12:13:53;24.80;;;14.17;;
6077;SDS011;3067;49.470;10.394;2023-03-01T12:16:27;27.60;;;14.63;;
6077;SDS011;3067;49.470;10.394;2023-03-01T12:19:05;26.13;;;12.93;;
6077;SDS011;3067;49.470;10.394;2023-03-01T12:21:39;25.60;;;13.77;;
6077;SDS011;3067;49.470;10.394;2023-03-01T12:24:31;26.77;;;13.83;;
6077;SDS011;3067;49.470;10.394;2023-03-01T12:27:12;27.50;;;13.60;;
6077;SDS011;3067;49.470;10.394;2023-03-01T12:29:45;25.87;;;13.30;;
6077;SDS011;3067;49.470;10.394;2023-03-01T12:32:20;27.13;;;14.40;;
6077;SDS011;3067;49.470;10.394;2023-03-01T12:34:55;27.27;;;13.27;;
6077;SDS011;3067;49.470;10.394;2023-03-01T12:37:29;23.10;;;13.63;;
6077;SDS011;3067;49.470;10.394;2023-03-01T12:40:09;25.00;;;13.70;;
6077;SDS011;3067;49.470;10.394;2023-03-01T12:42:44;24.77;;;13.90;;
6077;SDS011;3067;49.470;10.394;2023-03-01T12:45:30;24.60;;;14.00;;
6077;SDS011;3067;49.470;10.394;2023-03-01T12:48:04;21.00;;;13.17;;
6077;SDS011;3067;49.470;10.394;2023-03-01T12:50:37;23.83;;;13.63;;
6077;SDS011;3067;49.470;10.394;2023-03-01T12:53:07;27.47;;;13.67;;
6077;SDS011;3067;49.470;10.394;2023-03-01T12:55:41;21.20;;;12.83;;
6077;SDS011;3067;49.470;10.394;2023-03-01T12:58:13;21.27;;;13.27;;
6077;SDS011;3067;49.470;10.394;2023-03-01T13:00:48;23.70;;;13.57;;
6077;SDS011;3067;49.470;10.394;2023-03-01T13:03:22;23.60;;;13.93;;
6077;SDS011;3067;49.470;10.394;2023-03-01T13:05:56;24.40;;;12.97;;
6077;SDS011;3067;49.470;10.394;2023-03-01T13:08:29;26.80;;;13.50;;
6077;SDS011;3067;49.470;10.394;2023-03-01T13:10:59;29.80;;;13.97;;
6077;SDS011;3067;49.470;10.394;2023-03-01T13:13:29;26.00;;;13.40;;
6077;SDS011;3067;49.470;10.394;2023-03-01T13:15:56;22.77;;;13.40;;
6077;SDS011;3067;49.470;10.394;2023-03-01T13:18:31;26.80;;;13.40;;
6077;SDS011;3067;49.470;10.394;2023-03-01T13:20:59;27.17;;;13.70;;
6077;SDS011;3067;49.470;10.394;2023-03-01T13:23:28;22.87;;;13.33;;
6077;SDS011;3067;49.470;10.394;2023-03-01T13:26:03;26.03;;;13.90;;
6077;SDS011;3067;49.470;10.394;2023-03-01T13:28:40;22.40;;;13.57;;
6077;SDS011;3067;49.470;10.394;2023-03-01T13:31:07;23.83;;;12.37;;
6077;SDS011;3067;49.470;10.394;2023-03-01T13:33:44;22.50;;;13.17;;
6077;SDS011;3067;49.470;10.394;2023-03-01T13:38:55;26.60;;;13.00;;
6077;SDS011;3067;49.470;10.394;2023-03-01T13:44:13;27.30;;;14.07;;
6077;SDS011;3067;49.470;10.394;2023-03-01T13:46:47;28.40;;;14.23;;
6077;SDS011;3067;49.470;10.394;2023-03-01T13:49:16;24.97;;;14.43;;
6077;SDS011;3067;49.470;10.394;2023-03-01T13:51:45;23.20;;;13.63;;
6077;SDS011;3067;49.470;10.394;2023-03-01T13:54:13;29.63;;;13.87;;
6077;SDS011;3067;49.470;10.394;2023-03-01T13:56:41;21.23;;;13.13;;
6077;SDS011;3067;49.470;10.394;2023-03-01T13:59:14;23.90;;;14.30;;
6077;SDS011;3067;49.470;10.394;2023-03-01T14:01:41;26.20;;;13.97;;
6077;SDS011;3067;49.470;10.394;2023-03-01T14:04:25;25.63;;;13.80;;
6077;SDS011;3067;49.470;10.394;2023-03-01T14:13:01;24.13;;;13.40;;
6077;SDS011;3067;49.470;10.394;2023-03-01T14:15:42;23.53;;;14.00;;
6077;SDS011;3067;49.470;10.394;2023-03-01T14:18:12;30.40;;;14.27;;
6077;SDS011;3067;49.470;10.394;2023-03-01T14:20:44;22.13;;;13.43;;
6077;SDS011;3067;49.470;10.394;2023-03-01T14:23:19;26.13;;;15.00;;
6077;SDS011;3067;49.470;10.394;2023-03-01T14:25:47;25.17;;;14.90;;
6077;SDS011;3067;49.470;10.394;2023-03-01T14:28:16;27.90;;;14.77;;
6077;SDS011;3067;49.470;10.394;2023-03-01T14:30:46;21.80;;;13.47;;
6077;SDS011;3067;49.470;10.394;2023-03-01T14:33:21;35.50;;;15.20;;
6077;SDS011;3067;49.470;10.394;2023-03-01T14:35:52;21.93;;;13.50;;
6077;SDS011;3067;49.470;10.394;2023-03-01T14:38:20;24.80;;;14.17;;
6077;SDS011;3067;49.470;10.394;2023-03-01T14:40:48;24.83;;;14.40;;
6077;SDS011;3067;49.470;10.394;2023-03-01T14:43:19;22.40;;;14.03;;
6077;SDS011;3067;49.470;10.394;2023-03-01T14:45:51;21.43;;;14.00;;
6077;SDS011;3067;49.470;10.394;2023-03-01T14:48:21;22.00;;;13.50;;
6077;SDS011;3067;49.470;10.394;2023-03-01T14:50:54;25.43;;;14.73;;
6077;SDS011;3067;49.470;10.394;2023-03-01T14:53:22;22.10;;;14.63;;
6077;SDS011;3067;49.470;10.394;2023-03-01T14:56:01;29.13;;;14.30;;
6077;SDS011;3067;49.470;10.394;2023-03-01T15:01:35;37.67;;;16.90;;
6077;SDS011;3067;49.470;10.394;2023-03-01T15:04:12;23.90;;;13.80;;
6077;SDS011;3067;49.470;10.394;2023-03-01T15:06:44;24.57;;;14.50;;
6077;SDS011;3067;49.470;10.394;2023-03-01T15:09:12;27.17;;;15.73;;
6077;SDS011;3067;49.470;10.394;2023-03-01T15:11:41;30.57;;;16.67;;
6077;SDS011;3067;49.470;10.394;2023-03-01T15:14:25;25.33;;;14.20;;
6077;SDS011;3067;49.470;10.394;2023-03-01T15:16:59;35.17;;;15.53;;
6077;SDS011;3067;49.470;10.394;2023-03-01T15:19:26;27.20;;;14.30;;